sensor_id;sensor_type;location;lat;lon;timestamp;P1;durP1;ratioP1;P2;durP2;ratioP2
15677;SDS011;7939;50.814;6.368;2023-05-07T00:00:50;5.63;;;3.05;;
15677;SDS011;7939;50.814;6.368;2023-05-07T00:03:17;3.45;;;3.00;;
15677;SDS011;7939;50.814;6.368;2023-05-07T00:05:44;4.00;;;3.60;;
15677;SDS011;7939;50.814;6.368;2023-05-07T00:08:11;5.00;;;3.28;;
15677;SDS011;7939;50.814;6.368;2023-05-07T00:10:38;3.35;;;3.05;;
15677;SDS011;7939;50.814;6.368;2023-05-07T00:13:04;5.28;;;2.97;;
15677;SDS011;7939;50.814;6.368;2023-05-07T00:15:31;3.50;;;3.10;;
15677;SDS011;7939;50.814;6.368;2023-05-07T00:17:59;5.78;;;3.35;;
15677;SDS011;7939;50.814;6.368;2023-05-07T00:20:25;4.38;;;2.95;;
15677;SDS011;7939;50.814;6.368;2023-05-07T00:22:52;3.28;;;2.95;;
15677;SDS011;7939;50.814;6.368;2023-05-07T00:25:19;3.90;;;3.13;;
15677;SDS011;7939;50.814;6.368;2023-05-07T00:27:46;3.78;;;2.95;;
15677;SDS011;7939;50.814;6.368;2023-05-07T00:30:13;4.80;;;3.55;;
15677;SDS011;7939;50.814;6.368;2023-05-07T00:32:40;4.07;;;3.67;;
15677;SDS011;7939;50.814;6.368;2023-05-07T00:35:08;5.32;;;3.78;;
15677;SDS011;7939;50.814;6.368;2023-05-07T00:37:35;4.50;;;4.10;;
15677;SDS011;7939;50.814;6.368;2023-05-07T00:40:02;5.95;;;3.70;;
15677;SDS011;7939;50.814;6.368;2023-05-07T00:42:32;3.95;;;3.53;;
15677;SDS011;7939;50.814;6.368;2023-05-07T00:44:58;3.58;;;3.20;;
15677;SDS011;7939;50.814;6.368;2023-05-07T00:47:25;4.88;;;3.58;;
15677;SDS011;7939;50.814;6.368;2023-05-07T00:49:52;4.28;;;3.38;;
15677;SDS011;7939;50.814;6.368;2023-05-07T00:52:20;4.88;;;3.55;;
15677;SDS011;7939;50.814;6.368;2023-05-07T00:54:48;3.80;;;3.40;;
15677;SDS011;7939;50.814;6.368;2023-05-07T00:57:15;3.08;;;2.78;;
15677;SDS011;7939;50.814;6.368;2023-05-07T00:59:41;3.38;;;3.08;;
15677;SDS011;7939;50.814;6.368;2023-05-07T01:02:08;3.00;;;2.78;;
15677;SDS011;7939;50.814;6.368;2023-05-07T01:04:35;3.38;;;2.85;;
15677;SDS011;7939;50.814;6.368;2023-05-07T01:07:01;3.13;;;2.83;;
15677;SDS011;7939;50.814;6.368;2023-05-07T01:09:30;4.57;;;3.50;;
15677;SDS011;7939;50.814;6.368;2023-05-07T01:11:57;6.57;;;3.92;;
15677;SDS011;7939;50.814;6.368;2023-05-07T01:14:25;3.75;;;3.00;;
15677;SDS011;7939;50.814;6.368;2023-05-07T01:16:52;4.43;;;4.00;;
15677;SDS011;7939;50.814;6.368;2023-05-07T01:19:19;5.32;;;4.20;;
15677;SDS011;7939;50.814;6.368;2023-05-07T01:21:46;6.63;;;4.45;;
15677;SDS011;7939;50.814;6.368;2023-05-07T01:24:16;4.25;;;3.45;;
15677;SDS011;7939;50.814;6.368;2023-05-07T01:26:42;3.67;;;2.97;;
15677;SDS011;7939;50.814;6.368;2023-05-07T01:29:10;3.85;;;3.08;;
15677;SDS011;7939;50.814;6.368;2023-05-07T01:31:36;3.03;;;2.58;;
15677;SDS011;7939;50.814;6.368;2023-05-07T01:34:05;3.42;;;2.60;;
15677;SDS011;7939;50.814;6.368;2023-05-07T01:36:34;4.70;;;2.78;;
15677;SDS011;7939;50.814;6.368;2023-05-07T01:39:03;3.10;;;2.90;;
15677;SDS011;7939;50.814;6.368;2023-05-07T01:41:32;2.90;;;2.63;;
15677;SDS011;7939;50.814;6.368;2023-05-07T01:43:59;3.35;;;2.80;;
15677;SDS011;7939;50.814;6.368;2023-05-07T01:46:27;3.45;;;3.05;;
15677;SDS011;7939;50.814;6.368;2023-05-07T01:48:54;3.60;;;2.88;;
15677;SDS011;7939;50.814;6.368;2023-05-07T01:51:22;3.70;;;3.33;;
15677;SDS011;7939;50.814;6.368;2023-05-07T01:53:48;5.93;;;3.03;;
15677;SDS011;7939;50.814;6.368;2023-05-07T01:56:16;3.70;;;3.20;;
15677;SDS011;7939;50.814;6.368;2023-05-07T01:58:45;4.22;;;3.60;;
15677;SDS011;7939;50.814;6.368;2023-05-07T02:01:12;3.97;;;3.30;;
15677;SDS011;7939;50.814;6.368;2023-05-07T02:03:39;4.55;;;3.67;;
15677;SDS011;7939;50.814;6.368;2023-05-07T02:06:06;4.97;;;3.70;;
15677;SDS011;7939;50.814;6.368;2023-05-07T02:08:32;4.18;;;3.42;;
15677;SDS011;7939;50.814;6.368;2023-05-07T02:10:59;4.40;;;3.75;;
15677;SDS011;7939;50.814;6.368;2023-05-07T02:13:26;6.18;;;4.03;;
15677;SDS011;7939;50.814;6.368;2023-05-07T02:15:56;4.57;;;3.40;;
15677;SDS011;7939;50.814;6.368;2023-05-07T02:18:25;3.53;;;3.22;;
15677;SDS011;7939;50.814;6.368;2023-05-07T02:20:52;4.55;;;3.70;;
15677;SDS011;7939;50.814;6.368;2023-05-07T02:23:18;3.63;;;3.30;;
15677;SDS011;7939;50.814;6.368;2023-05-07T02:25:45;3.17;;;2.83;;
15677;SDS011;7939;50.814;6.368;2023-05-07T02:28:12;3.25;;;2.95;;
15677;SDS011;7939;50.814;6.368;2023-05-07T02:30:38;5.18;;;3.08;;
15677;SDS011;7939;50.814;6.368;2023-05-07T02:33:06;3.10;;;2.80;;
15677;SDS011;7939;50.814;6.368;2023-05-07T02:35:33;4.57;;;2.90;;
15677;SDS011;7939;50.814;6.368;2023-05-07T02:38:00;4.50;;;3.28;;
15677;SDS011;7939;50.814;6.368;2023-05-07T02:40:26;3.08;;;2.80;;
15677;SDS011;7939;50.814;6.368;2023-05-07T02:42:53;4.97;;;3.63;;
15677;SDS011;7939;50.814;6.368;2023-05-07T02:45:19;2.92;;;2.70;;
15677;SDS011;7939;50.814;6.368;2023-05-07T02:47:46;5.78;;;3.00;;
15677;SDS011;7939;50.814;6.368;2023-05-07T02:50:14;2.95;;;2.75;;
15677;SDS011;7939;50.814;6.368;2023-05-07T02:52:41;3.40;;;2.53;;
15677;SDS011;7939;50.814;6.368;2023-05-07T02:55:08;3.08;;;2.13;;
15677;SDS011;7939;50.814;6.368;2023-05-07T02:57:35;3.15;;;2.40;;
15677;SDS011;7939;50.814;6.368;2023-05-07T03:00:09;2.63;;;2.20;;
15677;SDS011;7939;50.814;6.368;2023-05-07T03:02:37;3.72;;;3.05;;
15677;SDS011;7939;50.814;6.368;2023-05-07T03:05:03;3.35;;;3.05;;
15677;SDS011;7939;50.814;6.368;2023-05-07T03:07:32;5.05;;;3.40;;
15677;SDS011;7939;50.814;6.368;2023-05-07T03:09:59;5.00;;;3.42;;
15677;SDS011;7939;50.814;6.368;2023-05-07T03:12:25;5.55;;;3.63;;
15677;SDS011;7939;50.814;6.368;2023-05-07T03:14:52;3.70;;;2.88;;
15677;SDS011;7939;50.814;6.368;2023-05-07T03:17:18;6.72;;;2.92;;
15677;SDS011;7939;50.814;6.368;2023-05-07T03:19:45;3.22;;;2.70;;
15677;SDS011;7939;50.814;6.368;2023-05-07T03:22:11;6.28;;;4.13;;
15677;SDS011;7939;50.814;6.368;2023-05-07T03:24:39;3.03;;;2.72;;
15677;SDS011;7939;50.814;6.368;2023-05-07T03:27:06;3.92;;;3.40;;
15677;SDS011;7939;50.814;6.368;2023-05-07T03:29:33;4.60;;;4.15;;
15677;SDS011;7939;50.814;6.368;2023-05-07T03:31:59;4.68;;;4.03;;
15677;SDS011;7939;50.814;6.368;2023-05-07T03:34:26;3.55;;;3.25;;
15677;SDS011;7939;50.814;6.368;2023-05-07T03:36:52;4.20;;;3.63;;
15677;SDS011;7939;50.814;6.368;2023-05-07T03:39:19;4.35;;;3.63;;
15677;SDS011;7939;50.814;6.368;2023-05-07T03:41:47;5.13;;;3.50;;
15677;SDS011;7939;50.814;6.368;2023-05-07T03:44:14;3.80;;;3.50;;
15677;SDS011;7939;50.814;6.368;2023-05-07T03:46:40;4.40;;;3.53;;
15677;SDS011;7939;50.814;6.368;2023-05-07T03:49:07;3.80;;;3.47;;
15677;SDS011;7939;50.814;6.368;2023-05-07T03:51:33;3.42;;;3.13;;
15677;SDS011;7939;50.814;6.368;2023-05-07T03:54:01;3.13;;;2.80;;
15677;SDS011;7939;50.814;6.368;2023-05-07T03:56:27;3.83;;;3.13;;
15677;SDS011;7939;50.814;6.368;2023-05-07T03:58:56;3.72;;;2.90;;
15677;SDS011;7939;50.814;6.368;2023-05-07T04:01:22;4.50;;;2.78;;
15677;SDS011;7939;50.814;6.368;2023-05-07T04:03:49;3.53;;;2.80;;
15677;SDS011;7939;50.814;6.368;2023-05-07T04:06:15;2.78;;;2.58;;
15677;SDS011;7939;50.814;6.368;2023-05-07T04:08:42;3.13;;;2.83;;
15677;SDS011;7939;50.814;6.368;2023-05-07T04:11:09;3.33;;;3.03;;
15677;SDS011;7939;50.814;6.368;2023-05-07T04:13:36;3.33;;;2.72;;
15677;SDS011;7939;50.814;6.368;2023-05-07T04:16:04;3.67;;;2.88;;
15677;SDS011;7939;50.814;6.368;2023-05-07T04:18:31;3.92;;;2.97;;
15677;SDS011;7939;50.814;6.368;2023-05-07T04:20:58;2.70;;;2.50;;
15677;SDS011;7939;50.814;6.368;2023-05-07T04:23:25;3.25;;;2.97;;
15677;SDS011;7939;50.814;6.368;2023-05-07T04:25:51;3.05;;;2.50;;
15677;SDS011;7939;50.814;6.368;2023-05-07T04:28:19;4.63;;;2.45;;
15677;SDS011;7939;50.814;6.368;2023-05-07T04:30:46;2.60;;;2.40;;
15677;SDS011;7939;50.814;6.368;2023-05-07T04:33:14;3.20;;;2.67;;
15677;SDS011;7939;50.814;6.368;2023-05-07T04:35:42;3.30;;;3.00;;
15677;SDS011;7939;50.814;6.368;2023-05-07T04:38:08;4.40;;;3.08;;
15677;SDS011;7939;50.814;6.368;2023-05-07T04:40:36;2.63;;;2.42;;
15677;SDS011;7939;50.814;6.368;2023-05-07T04:43:02;2.95;;;2.75;;
15677;SDS011;7939;50.814;6.368;2023-05-07T04:45:29;3.17;;;2.88;;
15677;SDS011;7939;50.814;6.368;2023-05-07T04:47:56;3.17;;;2.67;;
15677;SDS011;7939;50.814;6.368;2023-05-07T04:50:24;2.92;;;2.53;;
15677;SDS011;7939;50.814;6.368;2023-05-07T04:52:51;3.70;;;3.28;;
15677;SDS011;7939;50.814;6.368;2023-05-07T04:55:17;3.70;;;3.08;;
15677;SDS011;7939;50.814;6.368;2023-05-07T04:57:44;3.10;;;2.80;;
15677;SDS011;7939;50.814;6.368;2023-05-07T05:00:11;3.35;;;3.05;;
15677;SDS011;7939;50.814;6.368;2023-05-07T05:02:39;6.03;;;3.45;;
15677;SDS011;7939;50.814;6.368;2023-05-07T05:05:06;3.65;;;3.17;;
15677;SDS011;7939;50.814;6.368;2023-05-07T05:07:34;3.30;;;3.00;;
15677;SDS011;7939;50.814;6.368;2023-05-07T05:10:01;3.80;;;2.78;;
15677;SDS011;7939;50.814;6.368;2023-05-07T05:12:28;4.72;;;3.58;;
15677;SDS011;7939;50.814;6.368;2023-05-07T05:14:55;4.38;;;2.97;;
15677;SDS011;7939;50.814;6.368;2023-05-07T05:17:22;3.05;;;2.83;;
15677;SDS011;7939;50.814;6.368;2023-05-07T05:19:48;4.30;;;3.10;;
15677;SDS011;7939;50.814;6.368;2023-05-07T05:22:15;4.00;;;3.30;;
15677;SDS011;7939;50.814;6.368;2023-05-07T05:24:44;3.55;;;3.25;;
15677;SDS011;7939;50.814;6.368;2023-05-07T05:27:10;4.78;;;3.72;;
15677;SDS011;7939;50.814;6.368;2023-05-07T05:29:37;3.45;;;3.05;;
15677;SDS011;7939;50.814;6.368;2023-05-07T05:32:03;2.95;;;2.70;;
15677;SDS011;7939;50.814;6.368;2023-05-07T05:34:30;4.85;;;3.30;;
15677;SDS011;7939;50.814;6.368;2023-05-07T05:36:58;3.60;;;3.20;;
15677;SDS011;7939;50.814;6.368;2023-05-07T05:39:27;4.72;;;3.28;;
15677;SDS011;7939;50.814;6.368;2023-05-07T05:41:55;6.00;;;3.88;;
15677;SDS011;7939;50.814;6.368;2023-05-07T05:44:22;5.43;;;3.72;;
15677;SDS011;7939;50.814;6.368;2023-05-07T05:46:48;4.47;;;3.22;;
15677;SDS011;7939;50.814;6.368;2023-05-07T05:49:15;4.85;;;3.20;;
15677;SDS011;7939;50.814;6.368;2023-05-07T05:51:42;3.40;;;3.10;;
15677;SDS011;7939;50.814;6.368;2023-05-07T05:54:09;3.08;;;2.78;;
15677;SDS011;7939;50.814;6.368;2023-05-07T05:56:36;3.95;;;2.38;;
15677;SDS011;7939;50.814;6.368;2023-05-07T05:59:04;4.22;;;3.13;;
15677;SDS011;7939;50.814;6.368;2023-05-07T06:01:31;2.75;;;2.47;;
15677;SDS011;7939;50.814;6.368;2023-05-07T06:03:58;6.65;;;2.80;;
15677;SDS011;7939;50.814;6.368;2023-05-07T06:06:25;3.05;;;2.80;;
15677;SDS011;7939;50.814;6.368;2023-05-07T06:08:52;3.83;;;2.90;;
15677;SDS011;7939;50.814;6.368;2023-05-07T06:11:19;6.00;;;3.20;;
15677;SDS011;7939;50.814;6.368;2023-05-07T06:13:45;3.08;;;2.80;;
15677;SDS011;7939;50.814;6.368;2023-05-07T06:16:13;4.63;;;3.10;;
15677;SDS011;7939;50.814;6.368;2023-05-07T06:18:40;3.35;;;2.75;;
15677;SDS011;7939;50.814;6.368;2023-05-07T06:21:06;3.63;;;3.00;;
15677;SDS011;7939;50.814;6.368;2023-05-07T06:23:33;3.50;;;3.20;;
15677;SDS011;7939;50.814;6.368;2023-05-07T06:26:00;3.60;;;3.30;;
15677;SDS011;7939;50.814;6.368;2023-05-07T06:28:26;3.67;;;3.38;;
15677;SDS011;7939;50.814;6.368;2023-05-07T06:30:55;5.30;;;3.65;;
15677;SDS011;7939;50.814;6.368;2023-05-07T06:33:37;5.00;;;3.60;;
15677;SDS011;7939;50.814;6.368;2023-05-07T06:36:05;4.75;;;3.33;;
15677;SDS011;7939;50.814;6.368;2023-05-07T06:38:32;4.53;;;3.50;;
15677;SDS011;7939;50.814;6.368;2023-05-07T06:40:58;4.88;;;3.53;;
15677;SDS011;7939;50.814;6.368;2023-05-07T06:43:25;4.30;;;3.35;;
15677;SDS011;7939;50.814;6.368;2023-05-07T06:45:52;4.10;;;3.63;;
15677;SDS011;7939;50.814;6.368;2023-05-07T06:48:18;3.60;;;3.28;;
15677;SDS011;7939;50.814;6.368;2023-05-07T06:50:46;3.63;;;3.33;;
15677;SDS011;7939;50.814;6.368;2023-05-07T06:53:13;3.53;;;3.20;;
15677;SDS011;7939;50.814;6.368;2023-05-07T06:55:39;5.07;;;3.25;;
15677;SDS011;7939;50.814;6.368;2023-05-07T06:58:06;3.97;;;3.45;;
15677;SDS011;7939;50.814;6.368;2023-05-07T07:00:33;3.55;;;3.25;;
15677;SDS011;7939;50.814;6.368;2023-05-07T07:03:00;4.18;;;3.10;;
15677;SDS011;7939;50.814;6.368;2023-05-07T07:05:26;4.03;;;3.10;;
15677;SDS011;7939;50.814;6.368;2023-05-07T07:07:54;3.58;;;3.28;;
15677;SDS011;7939;50.814;6.368;2023-05-07T07:10:21;4.40;;;3.75;;
15677;SDS011;7939;50.814;6.368;2023-05-07T07:12:48;5.20;;;3.65;;
15677;SDS011;7939;50.814;6.368;2023-05-07T07:15:15;4.07;;;3.70;;
15677;SDS011;7939;50.814;6.368;2023-05-07T07:17:42;5.70;;;4.07;;
15677;SDS011;7939;50.814;6.368;2023-05-07T07:20:09;4.22;;;3.83;;
15677;SDS011;7939;50.814;6.368;2023-05-07T07:22:36;4.43;;;4.03;;
15677;SDS011;7939;50.814;6.368;2023-05-07T07:25:05;4.40;;;4.00;;
15677;SDS011;7939;50.814;6.368;2023-05-07T07:27:31;4.43;;;3.67;;
15677;SDS011;7939;50.814;6.368;2023-05-07T07:29:58;5.03;;;3.92;;
15677;SDS011;7939;50.814;6.368;2023-05-07T07:32:25;6.53;;;3.75;;
15677;SDS011;7939;50.814;6.368;2023-05-07T07:34:52;4.97;;;3.72;;
15677;SDS011;7939;50.814;6.368;2023-05-07T07:37:18;4.43;;;3.55;;
15677;SDS011;7939;50.814;6.368;2023-05-07T07:39:45;5.03;;;3.55;;
15677;SDS011;7939;50.814;6.368;2023-05-07T07:42:13;4.53;;;4.13;;
15677;SDS011;7939;50.814;6.368;2023-05-07T07:44:40;4.20;;;3.90;;
15677;SDS011;7939;50.814;6.368;2023-05-07T07:47:06;5.55;;;4.40;;
15677;SDS011;7939;50.814;6.368;2023-05-07T07:49:33;4.20;;;3.80;;
15677;SDS011;7939;50.814;6.368;2023-05-07T07:52:00;5.60;;;3.60;;
15677;SDS011;7939;50.814;6.368;2023-05-07T07:54:27;4.63;;;3.88;;
15677;SDS011;7939;50.814;6.368;2023-05-07T07:56:54;4.30;;;3.90;;
15677;SDS011;7939;50.814;6.368;2023-05-07T07:59:22;4.53;;;3.70;;
15677;SDS011;7939;50.814;6.368;2023-05-07T08:01:49;7.45;;;4.00;;
15677;SDS011;7939;50.814;6.368;2023-05-07T08:04:17;6.25;;;3.65;;
15677;SDS011;7939;50.814;6.368;2023-05-07T08:06:43;5.18;;;4.07;;
15677;SDS011;7939;50.814;6.368;2023-05-07T08:09:11;5.78;;;2.88;;
15677;SDS011;7939;50.814;6.368;2023-05-07T08:11:38;3.83;;;3.17;;
15677;SDS011;7939;50.814;6.368;2023-05-07T08:14:04;3.60;;;3.30;;
15677;SDS011;7939;50.814;6.368;2023-05-07T08:16:32;3.15;;;2.80;;
15677;SDS011;7939;50.814;6.368;2023-05-07T08:18:59;5.00;;;3.45;;
15677;SDS011;7939;50.814;6.368;2023-05-07T08:21:26;4.22;;;3.35;;
15677;SDS011;7939;50.814;6.368;2023-05-07T08:23:52;6.57;;;3.08;;
15677;SDS011;7939;50.814;6.368;2023-05-07T08:26:19;5.20;;;3.22;;
15677;SDS011;7939;50.814;6.368;2023-05-07T08:28:46;3.33;;;2.83;;
15677;SDS011;7939;50.814;6.368;2023-05-07T08:31:12;3.90;;;2.75;;
15677;SDS011;7939;50.814;6.368;2023-05-07T08:33:41;3.75;;;2.78;;
15677;SDS011;7939;50.814;6.368;2023-05-07T08:36:07;4.80;;;2.78;;
15677;SDS011;7939;50.814;6.368;2023-05-07T08:38:34;3.65;;;3.35;;
15677;SDS011;7939;50.814;6.368;2023-05-07T08:41:01;3.55;;;3.25;;
15677;SDS011;7939;50.814;6.368;2023-05-07T08:43:27;3.35;;;3.15;;
15677;SDS011;7939;50.814;6.368;2023-05-07T08:45:58;3.88;;;3.25;;
15677;SDS011;7939;50.814;6.368;2023-05-07T08:48:27;4.35;;;3.30;;
15677;SDS011;7939;50.814;6.368;2023-05-07T08:50:57;3.63;;;2.85;;
15677;SDS011;7939;50.814;6.368;2023-05-07T08:53:24;3.83;;;3.15;;
15677;SDS011;7939;50.814;6.368;2023-05-07T08:55:51;3.53;;;2.92;;
15677;SDS011;7939;50.814;6.368;2023-05-07T08:58:17;3.85;;;3.10;;
15677;SDS011;7939;50.814;6.368;2023-05-07T09:00:44;4.47;;;3.05;;
15677;SDS011;7939;50.814;6.368;2023-05-07T09:03:12;6.32;;;3.47;;
15677;SDS011;7939;50.814;6.368;2023-05-07T09:05:42;3.25;;;2.78;;
15677;SDS011;7939;50.814;6.368;2023-05-07T09:08:14;4.03;;;2.92;;
15677;SDS011;7939;50.814;6.368;2023-05-07T09:10:41;3.35;;;2.97;;
15677;SDS011;7939;50.814;6.368;2023-05-07T09:13:07;3.22;;;2.60;;
15677;SDS011;7939;50.814;6.368;2023-05-07T09:15:35;4.38;;;3.03;;
15677;SDS011;7939;50.814;6.368;2023-05-07T09:18:02;4.07;;;2.83;;
15677;SDS011;7939;50.814;6.368;2023-05-07T09:20:29;6.57;;;3.28;;
15677;SDS011;7939;50.814;6.368;2023-05-07T09:22:56;4.93;;;3.08;;
15677;SDS011;7939;50.814;6.368;2023-05-07T09:25:28;7.47;;;3.88;;
15677;SDS011;7939;50.814;6.368;2023-05-07T09:27:55;4.13;;;2.80;;
15677;SDS011;7939;50.814;6.368;2023-05-07T09:30:22;3.65;;;3.28;;
15677;SDS011;7939;50.814;6.368;2023-05-07T09:32:49;3.65;;;3.08;;
15677;SDS011;7939;50.814;6.368;2023-05-07T09:35:15;3.85;;;2.80;;
15677;SDS011;7939;50.814;6.368;2023-05-07T09:37:46;4.93;;;3.22;;
15677;SDS011;7939;50.814;6.368;2023-05-07T09:40:20;2.97;;;2.70;;
15677;SDS011;7939;50.814;6.368;2023-05-07T09:42:49;4.68;;;2.78;;
15677;SDS011;7939;50.814;6.368;2023-05-07T09:45:16;3.58;;;3.28;;
15677;SDS011;7939;50.814;6.368;2023-05-07T09:47:48;2.97;;;2.63;;
15677;SDS011;7939;50.814;6.368;2023-05-07T09:50:18;3.75;;;3.03;;
15677;SDS011;7939;50.814;6.368;2023-05-07T09:52:47;4.32;;;3.28;;
15677;SDS011;7939;50.814;6.368;2023-05-07T09:55:14;5.28;;;3.17;;
15677;SDS011;7939;50.814;6.368;2023-05-07T09:57:42;8.90;;;3.33;;
15677;SDS011;7939;50.814;6.368;2023-05-07T10:00:12;3.28;;;2.67;;
15677;SDS011;7939;50.814;6.368;2023-05-07T10:02:40;3.67;;;3.25;;
15677;SDS011;7939;50.814;6.368;2023-05-07T10:05:14;3.35;;;3.05;;
15677;SDS011;7939;50.814;6.368;2023-05-07T10:07:41;4.00;;;3.33;;
15677;SDS011;7939;50.814;6.368;2023-05-07T10:10:08;4.90;;;2.83;;
15677;SDS011;7939;50.814;6.368;2023-05-07T10:12:35;5.07;;;3.08;;
15677;SDS011;7939;50.814;6.368;2023-05-07T10:15:05;4.03;;;3.13;;
15677;SDS011;7939;50.814;6.368;2023-05-07T10:17:35;4.18;;;2.63;;
15677;SDS011;7939;50.814;6.368;2023-05-07T10:20:02;3.53;;;3.03;;
15677;SDS011;7939;50.814;6.368;2023-05-07T10:22:30;4.40;;;3.00;;
15677;SDS011;7939;50.814;6.368;2023-05-07T10:25:03;4.07;;;3.03;;
15677;SDS011;7939;50.814;6.368;2023-05-07T10:27:32;4.93;;;2.45;;
15677;SDS011;7939;50.814;6.368;2023-05-07T10:30:00;4.57;;;3.13;;
15677;SDS011;7939;50.814;6.368;2023-05-07T10:32:39;3.28;;;2.58;;
15677;SDS011;7939;50.814;6.368;2023-05-07T10:35:09;2.60;;;2.30;;
15677;SDS011;7939;50.814;6.368;2023-05-07T10:37:40;3.28;;;2.45;;
15677;SDS011;7939;50.814;6.368;2023-05-07T10:40:08;3.08;;;2.78;;
15677;SDS011;7939;50.814;6.368;2023-05-07T10:42:36;6.55;;;3.28;;
15677;SDS011;7939;50.814;6.368;2023-05-07T10:45:12;3.75;;;2.97;;
15677;SDS011;7939;50.814;6.368;2023-05-07T10:50:38;2.95;;;2.42;;
15677;SDS011;7939;50.814;6.368;2023-05-07T10:53:20;3.35;;;3.05;;
15677;SDS011;7939;50.814;6.368;2023-05-07T10:58:50;5.00;;;2.80;;
15677;SDS011;7939;50.814;6.368;2023-05-07T11:01:17;4.55;;;3.25;;
15677;SDS011;7939;50.814;6.368;2023-05-07T11:04:16;7.10;;;4.07;;
15677;SDS011;7939;50.814;6.368;2023-05-07T11:09:57;5.50;;;3.35;;
15677;SDS011;7939;50.814;6.368;2023-05-07T11:12:48;5.35;;;3.60;;
15677;SDS011;7939;50.814;6.368;2023-05-07T11:18:04;3.65;;;2.85;;
15677;SDS011;7939;50.814;6.368;2023-05-07T11:20:51;3.10;;;2.38;;
15677;SDS011;7939;50.814;6.368;2023-05-07T11:26:25;4.38;;;3.30;;
15677;SDS011;7939;50.814;6.368;2023-05-07T11:28:52;4.50;;;3.15;;
15677;SDS011;7939;50.814;6.368;2023-05-07T11:31:20;3.00;;;2.60;;
15677;SDS011;7939;50.814;6.368;2023-05-07T11:33:48;3.90;;;2.88;;
15677;SDS011;7939;50.814;6.368;2023-05-07T11:36:15;2.88;;;2.65;;
15677;SDS011;7939;50.814;6.368;2023-05-07T11:38:42;4.43;;;2.63;;
15677;SDS011;7939;50.814;6.368;2023-05-07T11:41:10;3.17;;;2.72;;
15677;SDS011;7939;50.814;6.368;2023-05-07T11:43:37;3.50;;;2.83;;
15677;SDS011;7939;50.814;6.368;2023-05-07T11:46:05;3.40;;;2.78;;
15677;SDS011;7939;50.814;6.368;2023-05-07T11:48:33;4.03;;;3.10;;
15677;SDS011;7939;50.814;6.368;2023-05-07T11:51:01;6.82;;;3.30;;
15677;SDS011;7939;50.814;6.368;2023-05-07T11:53:34;4.25;;;3.28;;
15677;SDS011;7939;50.814;6.368;2023-05-07T11:56:05;6.05;;;3.05;;
15677;SDS011;7939;50.814;6.368;2023-05-07T11:58:34;4.22;;;2.97;;
15677;SDS011;7939;50.814;6.368;2023-05-07T12:01:01;5.22;;;3.67;;
15677;SDS011;7939;50.814;6.368;2023-05-07T12:03:28;4.32;;;3.50;;
15677;SDS011;7939;50.814;6.368;2023-05-07T12:05:54;7.10;;;3.92;;
15677;SDS011;7939;50.814;6.368;2023-05-07T12:08:21;5.45;;;3.78;;
15677;SDS011;7939;50.814;6.368;2023-05-07T12:10:48;6.03;;;3.72;;
15677;SDS011;7939;50.814;6.368;2023-05-07T12:13:16;4.90;;;3.95;;
15677;SDS011;7939;50.814;6.368;2023-05-07T12:15:45;6.75;;;4.45;;
15677;SDS011;7939;50.814;6.368;2023-05-07T12:18:11;4.85;;;4.28;;
15677;SDS011;7939;50.814;6.368;2023-05-07T12:20:39;5.00;;;3.88;;
15677;SDS011;7939;50.814;6.368;2023-05-07T12:23:06;4.72;;;4.32;;
15677;SDS011;7939;50.814;6.368;2023-05-07T12:25:34;4.47;;;3.97;;
15677;SDS011;7939;50.814;6.368;2023-05-07T12:28:01;5.32;;;4.13;;
15677;SDS011;7939;50.814;6.368;2023-05-07T12:30:28;5.28;;;4.20;;
15677;SDS011;7939;50.814;6.368;2023-05-07T12:32:56;4.43;;;4.03;;
15677;SDS011;7939;50.814;6.368;2023-05-07T12:35:26;5.68;;;3.67;;
15677;SDS011;7939;50.814;6.368;2023-05-07T12:37:56;5.18;;;3.60;;
15677;SDS011;7939;50.814;6.368;2023-05-07T12:40:33;3.50;;;3.20;;
15677;SDS011;7939;50.814;6.368;2023-05-07T12:43:02;4.65;;;3.45;;
15677;SDS011;7939;50.814;6.368;2023-05-07T12:45:28;4.07;;;3.22;;
15677;SDS011;7939;50.814;6.368;2023-05-07T12:47:57;7.47;;;3.17;;
15677;SDS011;7939;50.814;6.368;2023-05-07T12:50:30;3.13;;;2.40;;
15677;SDS011;7939;50.814;6.368;2023-05-07T12:52:58;4.78;;;2.50;;
15677;SDS011;7939;50.814;6.368;2023-05-07T12:55:24;3.17;;;2.58;;
15677;SDS011;7939;50.814;6.368;2023-05-07T12:57:51;4.18;;;2.58;;
15677;SDS011;7939;50.814;6.368;2023-05-07T13:00:32;2.80;;;2.38;;
15677;SDS011;7939;50.814;6.368;2023-05-07T13:03:00;2.50;;;2.28;;
15677;SDS011;7939;50.814;6.368;2023-05-07T13:05:27;2.30;;;2.10;;
15677;SDS011;7939;50.814;6.368;2023-05-07T13:07:54;2.72;;;2.13;;
15677;SDS011;7939;50.814;6.368;2023-05-07T13:10:21;3.90;;;2.58;;
15677;SDS011;7939;50.814;6.368;2023-05-07T13:12:48;2.45;;;2.03;;
15677;SDS011;7939;50.814;6.368;2023-05-07T13:15:15;3.47;;;2.47;;
15677;SDS011;7939;50.814;6.368;2023-05-07T13:17:42;2.25;;;2.05;;
15677;SDS011;7939;50.814;6.368;2023-05-07T13:20:11;2.75;;;1.83;;
15677;SDS011;7939;50.814;6.368;2023-05-07T13:22:38;1.90;;;1.65;;
15677;SDS011;7939;50.814;6.368;2023-05-07T13:25:06;2.78;;;1.98;;
15677;SDS011;7939;50.814;6.368;2023-05-07T13:27:33;3.15;;;1.70;;
15677;SDS011;7939;50.814;6.368;2023-05-07T13:30:01;2.08;;;1.85;;
15677;SDS011;7939;50.814;6.368;2023-05-07T13:32:29;3.22;;;1.98;;
15677;SDS011;7939;50.814;6.368;2023-05-07T13:34:56;3.05;;;2.00;;
15677;SDS011;7939;50.814;6.368;2023-05-07T13:37:24;3.05;;;2.28;;
15677;SDS011;7939;50.814;6.368;2023-05-07T13:39:51;4.90;;;2.20;;
15677;SDS011;7939;50.814;6.368;2023-05-07T13:42:18;2.17;;;1.98;;
15677;SDS011;7939;50.814;6.368;2023-05-07T13:44:44;2.70;;;2.03;;
15677;SDS011;7939;50.814;6.368;2023-05-07T13:47:11;3.08;;;2.40;;
15677;SDS011;7939;50.814;6.368;2023-05-07T13:49:37;2.30;;;1.75;;
15677;SDS011;7939;50.814;6.368;2023-05-07T13:52:04;2.88;;;2.08;;
15677;SDS011;7939;50.814;6.368;2023-05-07T13:54:32;2.50;;;2.30;;
15677;SDS011;7939;50.814;6.368;2023-05-07T13:56:58;2.83;;;1.88;;
15677;SDS011;7939;50.814;6.368;2023-05-07T13:59:25;3.25;;;2.10;;
15677;SDS011;7939;50.814;6.368;2023-05-07T14:01:52;2.40;;;2.20;;
15677;SDS011;7939;50.814;6.368;2023-05-07T14:04:19;1.98;;;1.85;;
15677;SDS011;7939;50.814;6.368;2023-05-07T14:06:46;2.45;;;2.10;;
15677;SDS011;7939;50.814;6.368;2023-05-07T14:09:13;5.22;;;2.42;;
15677;SDS011;7939;50.814;6.368;2023-05-07T14:11:41;5.35;;;2.55;;
15677;SDS011;7939;50.814;6.368;2023-05-07T14:14:08;4.00;;;2.47;;
15677;SDS011;7939;50.814;6.368;2023-05-07T14:16:35;2.58;;;1.90;;
15677;SDS011;7939;50.814;6.368;2023-05-07T14:19:02;4.95;;;2.83;;
15677;SDS011;7939;50.814;6.368;2023-05-07T14:21:29;6.13;;;3.85;;
15677;SDS011;7939;50.814;6.368;2023-05-07T14:23:56;4.55;;;3.70;;
15677;SDS011;7939;50.814;6.368;2023-05-07T14:26:22;4.90;;;3.13;;
15677;SDS011;7939;50.814;6.368;2023-05-07T14:28:50;5.22;;;3.38;;
15677;SDS011;7939;50.814;6.368;2023-05-07T14:31:17;4.38;;;3.50;;
15677;SDS011;7939;50.814;6.368;2023-05-07T14:33:43;3.92;;;3.10;;
15677;SDS011;7939;50.814;6.368;2023-05-07T14:36:10;4.75;;;2.95;;
15677;SDS011;7939;50.814;6.368;2023-05-07T14:38:36;5.57;;;2.80;;
15677;SDS011;7939;50.814;6.368;2023-05-07T14:41:03;3.22;;;2.50;;
15677;SDS011;7939;50.814;6.368;2023-05-07T14:43:29;3.50;;;2.30;;
15677;SDS011;7939;50.814;6.368;2023-05-07T14:45:58;2.88;;;2.22;;
15677;SDS011;7939;50.814;6.368;2023-05-07T14:48:24;5.35;;;2.42;;
15677;SDS011;7939;50.814;6.368;2023-05-07T14:50:51;3.80;;;2.42;;
15677;SDS011;7939;50.814;6.368;2023-05-07T14:53:17;2.40;;;2.20;;
15677;SDS011;7939;50.814;6.368;2023-05-07T14:55:44;3.50;;;2.08;;
15677;SDS011;7939;50.814;6.368;2023-05-07T14:58:11;2.88;;;2.25;;
15677;SDS011;7939;50.814;6.368;2023-05-07T15:00:38;3.80;;;2.38;;
15677;SDS011;7939;50.814;6.368;2023-05-07T15:03:06;2.90;;;2.33;;
15677;SDS011;7939;50.814;6.368;2023-05-07T15:05:35;4.60;;;2.35;;
15677;SDS011;7939;50.814;6.368;2023-05-07T15:08:03;3.50;;;2.28;;
15677;SDS011;7939;50.814;6.368;2023-05-07T15:10:30;2.60;;;2.28;;
15677;SDS011;7939;50.814;6.368;2023-05-07T15:12:56;2.20;;;2.00;;
15677;SDS011;7939;50.814;6.368;2023-05-07T15:15:23;2.67;;;1.85;;
15677;SDS011;7939;50.814;6.368;2023-05-07T15:17:49;2.92;;;2.13;;